createdAt,value
2022-09-14T00:02:05.005Z,9.70
2022-09-14T00:05:06.798Z,8.93
2022-09-14T00:08:08.480Z,12.77
2022-09-14T00:11:14.910Z,18.45
2022-09-14T00:14:17.195Z,11.02
2022-09-14T00:17:18.848Z,9.05
2022-09-14T00:20:20.312Z,9.95
2022-09-14T00:23:21.702Z,11.02
2022-09-14T00:26:23.722Z,8.70
2022-09-14T00:29:25.236Z,9.60
2022-09-14T00:32:26.681Z,12.57
2022-09-14T00:35:28.236Z,9.48
2022-09-14T00:38:29.662Z,9.68
2022-09-14T00:41:34.845Z,9.90
2022-09-14T00:44:36.305Z,11.65
2022-09-14T00:47:37.768Z,15.05
2022-09-14T00:50:39.374Z,15.50
2022-09-14T00:53:41.156Z,16.85
2022-09-14T00:56:42.710Z,13.45
2022-09-14T00:59:46.435Z,10.32
2022-09-14T01:02:48.004Z,13.55
2022-09-14T01:06:23.350Z,14.65
2022-09-14T01:09:53.273Z,10.80
2022-09-14T01:13:22.957Z,11.55
2022-09-14T01:16:35.027Z,13.43
2022-09-14T01:20:03.860Z,9.43
2022-09-14T01:23:14.527Z,11.93
2022-09-14T01:26:58.650Z,11.60
2022-09-14T01:30:18.964Z,11.68
2022-09-14T01:33:37.396Z,10.20
2022-09-14T01:36:42.745Z,12.02
2022-09-14T01:39:49.928Z,11.18
2022-09-14T01:42:57.617Z,10.73
2022-09-14T01:46:10.915Z,10.73
2022-09-14T01:49:21.693Z,9.18
2022-09-14T01:52:33.491Z,9.50
2022-09-14T01:55:43.785Z,9.20
2022-09-14T01:58:50.191Z,11.25
2022-09-14T02:02:19.859Z,12.90
2022-09-14T02:05:33.181Z,12.65
2022-09-14T02:08:35.306Z,14.57
2022-09-14T02:11:38.032Z,12.93
2022-09-14T02:14:39.527Z,15.23
2022-09-14T02:17:41.540Z,16.20
2022-09-14T02:20:46.431Z,16.42
2022-09-14T02:23:49.103Z,16.45
2022-09-14T02:26:51.899Z,16.23
2022-09-14T02:29:53.785Z,14.70
2022-09-14T02:36:35.384Z,16.13
2022-09-14T02:40:07.472Z,13.02
2022-09-14T02:43:32.859Z,15.98
2022-09-14T02:46:52.629Z,12.35
2022-09-14T02:50:00.280Z,14.75
2022-09-14T02:53:06.934Z,14.45
2022-09-14T02:56:11.041Z,11.10
2022-09-14T02:59:12.769Z,12.02
2022-09-14T03:02:14.323Z,11.80
2022-09-14T03:05:15.859Z,11.85
2022-09-14T03:08:17.318Z,12.57
2022-09-14T03:11:18.775Z,11.57
2022-09-14T03:14:20.209Z,12.52
2022-09-14T03:17:21.622Z,13.25
2022-09-14T03:20:29.098Z,11.73
2022-09-14T03:23:30.620Z,8.93
2022-09-14T03:26:36.685Z,7.85
2022-09-14T03:29:38.150Z,8.20
2022-09-14T03:32:39.749Z,9.38
2022-09-14T03:35:41.154Z,8.07
2022-09-14T03:38:47.753Z,10.73
2022-09-14T03:41:49.162Z,10.23
2022-09-14T03:44:50.565Z,9.77
2022-09-14T03:47:51.968Z,9.98
2022-09-14T03:50:53.383Z,13.35
2022-09-14T03:53:55.761Z,13.30
2022-09-14T03:56:57.155Z,10.65
2022-09-14T03:59:58.909Z,9.95
2022-09-14T04:03:00.599Z,10.70
2022-09-14T04:06:05.298Z,9.63
2022-09-14T04:09:06.755Z,12.63
2022-09-14T04:12:08.511Z,10.32
2022-09-14T04:15:10.103Z,9.07
2022-09-14T04:18:12.205Z,11.82
2022-09-14T04:21:19.292Z,9.82
2022-09-14T04:24:21.055Z,9.73
2022-09-14T04:27:23.173Z,11.43
2022-09-14T04:30:24.592Z,8.40
2022-09-14T04:33:29.584Z,10.20
2022-09-14T04:36:31.549Z,8.98
2022-09-14T04:39:33.154Z,13.15
2022-09-14T04:42:34.557Z,9.75
2022-09-14T04:45:37.003Z,10.00
2022-09-14T04:48:38.858Z,13.38
2022-09-14T04:54:41.594Z,9.95
2022-09-14T04:57:43.005Z,11.88
2022-09-14T05:00:44.402Z,12.80
2022-09-14T05:03:46.581Z,14.27
2022-09-14T05:06:48.028Z,10.43
2022-09-14T05:09:49.438Z,13.55
2022-09-14T05:12:50.901Z,11.40
2022-09-14T05:15:52.387Z,10.20
2022-09-14T05:18:56.074Z,12.00
2022-09-14T05:21:57.482Z,13.07
2022-09-14T05:24:58.929Z,12.85
2022-09-14T05:28:00.374Z,11.10
2022-09-14T05:31:06.876Z,12.05
2022-09-14T05:34:10.165Z,9.57
2022-09-14T05:37:12.737Z,12.60
2022-09-14T05:40:14.324Z,11.93
2022-09-14T05:43:15.747Z,11.02
2022-09-14T05:46:22.122Z,16.20
2022-09-14T05:49:25.194Z,11.60
2022-09-14T05:52:29.373Z,11.70
2022-09-14T05:55:30.919Z,12.02
2022-09-14T05:58:32.728Z,12.95
2022-09-14T06:01:34.188Z,9.38
2022-09-14T06:04:36.170Z,12.98
2022-09-14T06:10:39.051Z,11.53
2022-09-14T06:13:41.122Z,10.90
2022-09-14T06:16:42.524Z,9.63
2022-09-14T06:19:43.991Z,15.32
2022-09-14T06:22:45.608Z,12.00
2022-09-14T06:25:47.041Z,16.60
2022-09-14T06:28:49.414Z,12.35
2022-09-14T06:31:50.836Z,12.05
2022-09-14T06:34:52.230Z,15.43
2022-09-14T06:37:54.538Z,15.25
2022-09-14T06:40:57.710Z,11.98
2022-09-14T06:44:01.605Z,15.75
2022-09-14T06:47:03.261Z,10.32
2022-09-14T06:50:05.207Z,10.25
2022-09-14T06:56:08.096Z,8.60
2022-09-14T06:59:12.542Z,10.13
2022-09-14T07:02:14.118Z,10.45
2022-09-14T07:05:15.647Z,9.95
2022-09-14T07:08:17.029Z,13.13
2022-09-14T07:11:21.006Z,11.73
2022-09-14T07:14:22.615Z,11.82
2022-09-14T07:17:24.024Z,11.55
2022-09-14T07:20:25.465Z,11.27
2022-09-14T07:23:26.881Z,9.45
2022-09-14T07:26:35.265Z,10.27
2022-09-14T07:29:36.660Z,11.27
2022-09-14T07:32:38.353Z,13.13
2022-09-14T07:35:40.048Z,9.40
2022-09-14T07:38:52.557Z,12.15
2022-09-14T07:41:55.451Z,16.38
2022-09-14T07:44:57.574Z,9.85
2022-09-14T07:48:03.160Z,15.60
2022-09-14T07:51:07.644Z,13.98
2022-09-14T07:54:12.403Z,11.38
2022-09-14T07:57:14.660Z,14.32
2022-09-14T08:00:16.501Z,10.85
2022-09-14T08:06:24.282Z,16.42
2022-09-14T08:09:26.594Z,11.48
2022-09-14T08:12:28.836Z,12.55
2022-09-14T08:15:31.770Z,9.50
2022-09-14T08:18:35.170Z,14.77
2022-09-14T08:21:37.073Z,8.43
2022-09-14T08:27:40.121Z,10.75
2022-09-14T08:30:41.546Z,10.10
2022-09-14T08:33:45.331Z,7.78
2022-09-14T08:36:47.339Z,8.40
2022-09-14T08:39:51.643Z,9.52
2022-09-14T08:42:58.647Z,10.88
2022-09-14T08:46:04.628Z,11.85
2022-09-14T08:49:18.842Z,9.80
2022-09-14T08:52:32.344Z,9.35
2022-09-14T08:55:41.250Z,14.13
2022-09-14T08:59:07.929Z,11.43
2022-09-14T09:02:40.609Z,11.07
2022-09-14T09:05:53.559Z,9.15
2022-09-14T09:09:23.984Z,7.30
2022-09-14T09:12:28.032Z,8.93
2022-09-14T09:15:32.286Z,9.15
2022-09-14T09:18:47.985Z,9.95
2022-09-14T09:21:50.448Z,10.13
2022-09-14T09:24:55.364Z,14.13
2022-09-14T09:28:09.719Z,10.88
2022-09-14T09:31:15.005Z,10.52
2022-09-14T09:34:36.110Z,9.13
2022-09-14T09:37:57.910Z,8.23
2022-09-14T09:41:02.279Z,7.45
2022-09-14T09:44:11.135Z,11.32
2022-09-14T09:47:12.879Z,10.80
2022-09-14T09:53:18.558Z,10.27
2022-09-14T09:56:31.928Z,8.15
2022-09-14T09:59:42.350Z,11.52
2022-09-14T10:02:44.115Z,8.48
2022-09-14T10:08:47.476Z,8.83
2022-09-14T10:11:58.395Z,9.77
2022-09-14T10:15:17.450Z,10.67
2022-09-14T10:18:28.325Z,9.02
2022-09-14T10:21:31.320Z,8.27
2022-09-14T10:24:35.937Z,12.73
2022-09-14T10:27:46.124Z,9.18
2022-09-14T10:30:53.381Z,10.50
2022-09-14T10:33:57.665Z,11.80
2022-09-14T10:37:36.172Z,14.18
2022-09-14T10:40:43.904Z,10.48
2022-09-14T10:44:43.185Z,7.53
2022-09-14T10:48:02.594Z,9.93
2022-09-14T10:51:20.551Z,8.25
2022-09-14T10:54:31.612Z,12.25
2022-09-14T10:57:54.121Z,10.13
2022-09-14T11:01:14.316Z,12.98
2022-09-14T11:04:34.835Z,7.57
2022-09-14T11:08:30.328Z,10.90
2022-09-14T11:11:58.968Z,8.27
2022-09-14T11:15:32.145Z,9.23
2022-09-14T11:18:48.421Z,10.38
2022-09-14T11:22:19.581Z,8.80
2022-09-14T11:25:33.114Z,21.03
2022-09-14T11:28:41.258Z,11.43
2022-09-14T11:32:16.798Z,20.73
2022-09-14T11:35:29.514Z,19.95
2022-09-14T11:38:47.630Z,13.32
2022-09-14T11:41:51.525Z,9.40
2022-09-14T11:45:13.814Z,37.05
2022-09-14T11:48:43.958Z,13.57
2022-09-14T11:52:07.673Z,7.78
2022-09-14T11:55:15.355Z,10.18
2022-09-14T11:58:29.675Z,8.30
2022-09-14T12:01:38.453Z,8.68
2022-09-14T12:05:05.828Z,9.75
2022-09-14T12:08:30.604Z,11.07
2022-09-14T12:11:35.234Z,9.65
2022-09-14T12:14:40.502Z,12.15
2022-09-14T12:17:42.574Z,10.63
2022-09-14T12:20:46.795Z,8.63
2022-09-14T12:23:52.237Z,11.68
2022-09-14T12:26:54.276Z,7.28
2022-09-14T12:29:55.688Z,6.50
2022-09-14T12:32:57.112Z,7.18
2022-09-14T12:36:01.196Z,5.38
2022-09-14T12:39:02.553Z,7.32
2022-09-14T12:42:25.491Z,9.65
2022-09-14T12:45:59.858Z,6.03
2022-09-14T12:49:04.233Z,6.93
2022-09-14T12:52:20.259Z,5.75
2022-09-14T12:55:42.727Z,8.57
2022-09-14T12:58:56.604Z,5.38
2022-09-14T13:02:34.125Z,5.65
2022-09-14T13:05:35.753Z,4.50
2022-09-14T13:08:37.234Z,5.00
2022-09-14T13:11:41.234Z,4.32
2022-09-14T13:14:53.777Z,3.47
2022-09-14T13:18:03.853Z,6.13
2022-09-14T13:21:20.988Z,5.15
2022-09-14T13:24:29.426Z,4.43
2022-09-14T13:27:38.022Z,4.00
2022-09-14T13:30:41.803Z,3.35
2022-09-14T13:33:51.740Z,5.32
2022-09-14T13:36:55.661Z,3.58
2022-09-14T13:39:58.365Z,4.45
2022-09-14T13:43:00.261Z,3.25
2022-09-14T13:46:05.059Z,3.10
2022-09-14T13:49:07.575Z,3.47
2022-09-14T13:52:31.056Z,2.78
2022-09-14T13:55:45.108Z,3.95
2022-09-14T13:58:48.505Z,3.85
2022-09-14T14:01:53.793Z,4.15
2022-09-14T14:04:55.367Z,2.90
2022-09-14T14:07:59.271Z,2.53
2022-09-14T14:11:02.696Z,5.93
2022-09-14T14:14:16.288Z,3.47
2022-09-14T14:17:25.237Z,4.38
2022-09-14T14:20:26.800Z,4.00
2022-09-14T14:23:28.714Z,4.47
2022-09-14T14:29:31.625Z,7.50
2022-09-14T14:32:33.455Z,4.35
2022-09-14T14:38:36.518Z,5.57
2022-09-14T14:41:38.019Z,4.18
2022-09-14T14:44:39.689Z,6.32
2022-09-14T14:47:41.338Z,2.63
2022-09-14T14:50:42.757Z,3.30
2022-09-14T14:53:44.669Z,2.88
2022-09-14T14:59:52.705Z,5.05
2022-09-14T15:02:54.201Z,5.03
2022-09-14T15:05:55.595Z,7.38
2022-09-14T15:08:57.014Z,4.65
2022-09-14T15:11:58.428Z,3.83
2022-09-14T15:15:00.452Z,5.60
2022-09-14T15:18:01.931Z,3.97
2022-09-14T15:21:03.429Z,4.65
2022-09-14T15:24:05.366Z,4.28
2022-09-14T15:30:10.214Z,5.77
2022-09-14T15:33:11.669Z,7.50
2022-09-14T15:36:13.248Z,3.88
2022-09-14T15:39:14.837Z,5.63
2022-09-14T15:42:19.463Z,4.03
2022-09-14T15:45:20.962Z,4.40
2022-09-14T15:48:22.417Z,3.67
2022-09-14T15:51:23.922Z,3.88
2022-09-14T15:54:30.761Z,3.92
2022-09-14T15:57:32.622Z,9.38
2022-09-14T16:06:38.373Z,5.88
2022-09-14T16:12:42.513Z,5.93
2022-09-14T16:15:44.089Z,3.80
2022-09-14T16:18:46.023Z,4.07
2022-09-14T16:24:54.950Z,7.32
2022-09-14T16:27:56.365Z,4.60
2022-09-14T16:31:08.185Z,3.85
2022-09-14T16:34:21.885Z,4.85
2022-09-14T16:37:23.281Z,5.00
2022-09-14T16:40:25.393Z,8.93
2022-09-14T16:43:27.802Z,6.07
2022-09-14T16:46:30.929Z,5.20
2022-09-14T16:49:32.482Z,5.93
2022-09-14T16:52:33.883Z,4.00
2022-09-14T16:55:35.579Z,6.43
2022-09-14T16:58:38.467Z,6.80
2022-09-14T17:01:42.432Z,6.15
2022-09-14T17:04:43.898Z,4.57
2022-09-14T17:07:45.285Z,5.32
2022-09-14T17:10:47.197Z,5.88
2022-09-14T17:16:50.322Z,7.47
2022-09-14T17:19:52.041Z,7.82
2022-09-14T17:22:53.807Z,4.88
2022-09-14T17:25:55.733Z,5.72
2022-09-14T17:31:59.177Z,5.72
2022-09-14T17:35:01.799Z,6.00
2022-09-14T17:38:03.969Z,4.50
2022-09-14T17:41:08.651Z,5.25
2022-09-14T17:44:12.687Z,6.72
2022-09-14T17:47:14.259Z,6.25
2022-09-14T17:50:16.652Z,12.63
2022-09-14T17:53:18.189Z,4.00
2022-09-14T17:56:23.987Z,4.57
2022-09-14T17:59:25.430Z,9.23
2022-09-14T18:02:26.888Z,9.15
2022-09-14T18:05:28.314Z,10.05
2022-09-14T18:08:29.732Z,4.43
2022-09-14T18:11:31.770Z,9.30
2022-09-14T18:14:33.310Z,6.45
2022-09-14T18:17:34.803Z,9.63
2022-09-14T18:20:37.735Z,5.10
2022-09-14T18:23:39.414Z,5.00
2022-09-14T18:26:41.035Z,10.18
2022-09-14T18:29:42.425Z,8.13
2022-09-14T18:32:46.166Z,6.82
2022-09-14T18:35:47.601Z,6.95
2022-09-14T18:38:49.635Z,5.00
2022-09-14T18:41:53.551Z,5.57
2022-09-14T18:44:56.229Z,7.63
2022-09-14T18:47:57.743Z,6.22
2022-09-14T18:51:04.851Z,6.70
2022-09-14T18:54:07.591Z,5.68
2022-09-14T18:57:09.399Z,9.23
2022-09-14T19:00:14.061Z,8.27
2022-09-14T19:03:19.168Z,6.60
2022-09-14T19:06:20.654Z,7.43
2022-09-14T19:09:22.142Z,10.02
2022-09-14T19:12:24.024Z,5.95
2022-09-14T19:15:27.752Z,8.32
2022-09-14T19:18:32.229Z,9.18
2022-09-14T19:21:34.109Z,7.93
2022-09-14T19:27:37.012Z,8.52
2022-09-14T19:30:42.523Z,6.13
2022-09-14T19:33:45.644Z,8.13
2022-09-14T19:36:48.081Z,10.23
2022-09-14T19:39:49.672Z,7.55
2022-09-14T19:42:51.759Z,10.50
2022-09-14T19:45:53.253Z,8.35
2022-09-14T19:48:54.909Z,9.95
2022-09-14T19:51:56.521Z,10.68
2022-09-14T19:54:58.016Z,13.55
2022-09-14T19:57:59.494Z,8.95
2022-09-14T20:01:00.908Z,12.63
2022-09-14T20:04:03.673Z,7.05
2022-09-14T20:07:07.432Z,8.73
2022-09-14T20:10:09.925Z,7.78
2022-09-14T20:13:11.357Z,8.30
2022-09-14T20:16:19.175Z,10.13
2022-09-14T20:19:23.355Z,6.00
2022-09-14T20:22:24.743Z,8.82
2022-09-14T20:25:26.190Z,9.85
2022-09-14T20:28:28.361Z,9.88
2022-09-14T20:31:30.965Z,12.38
2022-09-14T20:34:32.679Z,10.82
2022-09-14T20:37:34.082Z,12.73
2022-09-14T20:40:35.565Z,8.55
2022-09-14T20:43:39.285Z,12.82
2022-09-14T20:46:43.825Z,6.57
2022-09-14T20:49:45.393Z,7.72
2022-09-14T20:52:46.794Z,9.10
2022-09-14T20:55:48.234Z,9.02
2022-09-14T20:58:53.589Z,7.85
2022-09-14T21:01:55.171Z,12.77
2022-09-14T21:04:56.917Z,9.10
2022-09-14T21:07:58.399Z,7.68
2022-09-14T21:11:12.525Z,10.43
2022-09-14T21:14:16.610Z,10.45
2022-09-14T21:17:18.167Z,11.20
2022-09-14T21:20:19.630Z,7.50
2022-09-14T21:23:21.021Z,9.98
2022-09-14T21:26:23.137Z,12.95
2022-09-14T21:29:24.766Z,9.18
2022-09-14T21:32:26.189Z,7.15
2022-09-14T21:35:31.641Z,11.70
2022-09-14T21:38:35.861Z,13.88
2022-09-14T21:41:38.787Z,12.45
2022-09-14T21:44:40.191Z,8.82
2022-09-14T21:47:41.645Z,10.82
2022-09-14T21:50:47.252Z,10.00
2022-09-14T21:53:52.190Z,11.77
2022-09-14T21:56:54.207Z,13.18
2022-09-14T21:59:55.612Z,11.95
2022-09-14T22:02:57.069Z,9.23
2022-09-14T22:06:02.059Z,8.15
2022-09-14T22:09:03.718Z,11.32
2022-09-14T22:12:05.283Z,8.77
2022-09-14T22:15:07.075Z,6.60
2022-09-14T22:18:08.476Z,8.45
2022-09-14T22:21:09.980Z,5.07
2022-09-14T22:24:14.739Z,6.65
2022-09-14T22:27:16.191Z,8.55
2022-09-14T22:30:18.876Z,11.55
2022-09-14T22:33:24.754Z,7.65
2022-09-14T22:36:26.895Z,6.00
2022-09-14T22:39:28.289Z,6.95
2022-09-14T22:42:31.461Z,4.10
2022-09-14T22:45:32.855Z,5.15
2022-09-14T22:48:35.067Z,7.82
2022-09-14T22:51:36.805Z,7.28
2022-09-14T22:54:38.204Z,8.45
2022-09-14T22:57:39.607Z,5.40
2022-09-14T23:00:42.426Z,6.22
2022-09-14T23:03:44.132Z,5.40
2022-09-14T23:06:47.514Z,11.25
2022-09-14T23:09:49.096Z,9.20
2022-09-14T23:12:50.556Z,5.45
2022-09-14T23:15:52.002Z,7.43
2022-09-14T23:18:55.732Z,5.18
2022-09-14T23:21:57.161Z,6.10
2022-09-14T23:24:58.589Z,4.63
2022-09-14T23:28:00.082Z,6.25
2022-09-14T23:31:01.785Z,6.68
2022-09-14T23:34:04.959Z,7.00
2022-09-14T23:37:06.392Z,6.68
2022-09-14T23:40:08.471Z,7.15
2022-09-14T23:43:10.343Z,9.65
2022-09-14T23:46:12.557Z,6.72
2022-09-14T23:49:14.261Z,6.97
2022-09-14T23:52:15.662Z,7.28
2022-09-14T23:55:17.254Z,6.30
2022-09-14T23:58:18.680Z,8.10
